createdAt,value
2019-04-27T00:03:41.200Z,14.90
2019-04-27T00:08:46.627Z,14.90
2019-04-27T00:13:51.533Z,14.90
2019-04-27T00:19:13.551Z,14.80
2019-04-27T00:24:21.124Z,14.70
2019-04-27T00:29:26.048Z,14.70
2019-04-27T00:34:31.005Z,14.80
2019-04-27T00:39:46.283Z,14.70
2019-04-27T00:44:51.302Z,14.60
2019-04-27T00:49:56.150Z,14.60
2019-04-27T00:55:03.030Z,14.60
2019-04-27T01:00:09.477Z,14.50
2019-04-27T01:05:23.105Z,14.50
2019-04-27T01:10:28.259Z,14.40
2019-04-27T01:15:34.107Z,14.20
2019-04-27T01:20:39.028Z,14.20
2019-04-27T01:25:45.506Z,14.10
2019-04-27T01:30:55.510Z,14.10
2019-04-27T01:36:00.492Z,14.00
2019-04-27T01:41:05.520Z,13.90
2019-04-27T01:46:10.374Z,13.90
2019-04-27T01:51:15.216Z,13.80
2019-04-27T01:56:20.719Z,13.70
2019-04-27T02:01:43.331Z,13.70
2019-04-27T02:06:51.661Z,13.60
2019-04-27T02:11:56.498Z,13.50
2019-04-27T02:17:01.362Z,13.50
2019-04-27T02:22:06.294Z,13.40
2019-04-27T02:27:11.919Z,13.40
2019-04-27T02:32:20.321Z,13.30
2019-04-27T02:37:24.971Z,13.20
2019-04-27T02:42:31.487Z,13.20
2019-04-27T02:47:36.317Z,13.10
2019-04-27T02:52:42.827Z,13.00
2019-04-27T02:57:49.926Z,12.90
2019-04-27T03:02:56.061Z,12.90
2019-04-27T03:08:00.904Z,12.80
2019-04-27T03:13:11.141Z,12.80
2019-04-27T03:18:20.703Z,12.70
2019-04-27T03:23:25.614Z,12.70
2019-04-27T03:28:30.529Z,12.60
2019-04-27T03:33:35.858Z,12.50
2019-04-27T03:38:40.807Z,12.50
2019-04-27T03:43:45.649Z,12.40
2019-04-27T03:48:50.473Z,12.40
2019-04-27T03:54:00.609Z,12.40
2019-04-27T03:59:16.044Z,12.50
2019-04-27T04:04:20.874Z,12.40
2019-04-27T04:09:29.554Z,12.20
2019-04-27T04:14:36.779Z,12.30
2019-04-27T04:19:54.308Z,12.30
2019-04-27T04:24:46.881Z,12.60
2019-04-27T04:29:51.721Z,13.00
2019-04-27T04:35:14.676Z,13.30
2019-04-27T04:40:23.094Z,13.60
2019-04-27T04:45:45.703Z,13.70
2019-04-27T04:50:50.544Z,13.80
2019-04-27T04:55:55.404Z,13.90
2019-04-27T05:01:01.922Z,14.00
2019-04-27T05:06:08.693Z,13.90
2019-04-27T05:11:13.217Z,14.00
2019-04-27T05:16:18.948Z,14.10
2019-04-27T05:21:26.150Z,14.20
2019-04-27T05:26:31.084Z,14.30
2019-04-27T05:31:35.949Z,14.20
2019-04-27T05:36:48.758Z,13.90
2019-04-27T05:41:49.900Z,13.80
2019-04-27T05:46:58.791Z,13.90
2019-04-27T05:52:14.435Z,14.00
2019-04-27T05:57:15.048Z,14.30
2019-04-27T06:02:23.660Z,14.40
2019-04-27T06:07:29.706Z,14.60
2019-04-27T06:12:34.864Z,14.70
2019-04-27T06:17:39.864Z,14.70
2019-04-27T06:22:44.734Z,14.70
2019-04-27T06:27:49.673Z,14.60
2019-04-27T06:32:54.560Z,14.70
2019-04-27T06:37:59.432Z,14.80
2019-04-27T06:43:04.607Z,14.90
2019-04-27T06:48:09.747Z,14.90
2019-04-27T06:53:14.594Z,15.00
2019-04-27T06:58:20.123Z,14.90
2019-04-27T07:03:26.208Z,14.80
2019-04-27T07:08:30.982Z,14.90
2019-04-27T07:13:39.051Z,15.00
2019-04-27T07:18:43.970Z,15.20
2019-04-27T07:23:59.462Z,15.20
2019-04-27T07:29:04.484Z,15.50
2019-04-27T07:34:10.259Z,15.50
2019-04-27T07:39:16.748Z,15.60
2019-04-27T07:44:23.188Z,15.60
2019-04-27T07:49:29.082Z,15.50
2019-04-27T07:54:33.912Z,15.40
2019-04-27T07:59:41.927Z,15.30
2019-04-27T08:04:48.517Z,15.10
2019-04-27T08:09:53.830Z,15.10
2019-04-27T08:15:00.043Z,15.10
2019-04-27T08:20:06.332Z,15.10
2019-04-27T08:25:12.136Z,15.10
2019-04-27T08:30:39.358Z,15.10
2019-04-27T08:35:45.339Z,15.00
2019-04-27T08:40:51.891Z,15.00
2019-04-27T08:46:01.950Z,15.00
2019-04-27T08:51:09.431Z,15.10
2019-04-27T08:56:15.820Z,15.00
2019-04-27T09:01:20.817Z,15.10
2019-04-27T09:06:26.440Z,15.30
2019-04-27T09:11:49.476Z,15.30
2019-04-27T09:17:02.218Z,15.30
2019-04-27T09:22:13.604Z,15.40
2019-04-27T09:27:13.798Z,15.30
2019-04-27T09:32:20.048Z,15.20
2019-04-27T09:53:10.175Z,14.90
2019-04-27T09:58:15.994Z,15.00
2019-04-27T10:03:21.581Z,15.00
2019-04-27T10:08:26.495Z,15.10
2019-04-27T10:13:31.343Z,14.90
2019-04-27T10:18:36.771Z,14.70
2019-04-27T10:23:41.828Z,14.70
2019-04-27T10:28:46.729Z,14.70
2019-04-27T10:33:51.568Z,14.60
2019-04-27T10:38:56.399Z,14.40
2019-04-27T10:44:01.172Z,14.30
2019-04-27T10:49:07.508Z,14.20
2019-04-27T10:54:12.360Z,14.20
2019-04-27T10:59:17.234Z,14.10
2019-04-27T11:04:29.695Z,14.20
2019-04-27T11:09:34.830Z,14.30
2019-04-27T11:14:39.686Z,14.40
2019-04-27T11:19:46.044Z,14.20
2019-04-27T11:24:50.978Z,14.20
2019-04-27T11:29:56.385Z,14.20
2019-04-27T11:35:05.792Z,14.20
2019-04-27T11:40:12.194Z,14.30
2019-04-27T11:45:17.483Z,14.30
2019-04-27T11:50:25.639Z,14.30
2019-04-27T11:55:30.652Z,14.50
2019-04-27T12:00:36.471Z,14.60
2019-04-27T12:05:41.642Z,14.80
2019-04-27T12:10:48.258Z,15.10
2019-04-27T12:15:58.148Z,15.30
2019-04-27T12:21:06.462Z,15.30
2019-04-27T12:26:17.670Z,15.20
2019-04-27T12:31:25.781Z,15.10
2019-04-27T12:36:30.807Z,15.00
2019-04-27T12:41:37.272Z,15.00
2019-04-27T12:46:42.057Z,15.00
2019-04-27T12:51:46.847Z,14.90
2019-04-27T12:56:56.054Z,14.90
2019-04-27T13:02:01.337Z,14.90
2019-04-27T13:07:06.230Z,14.90
2019-04-27T13:12:11.037Z,14.90
2019-04-27T13:17:16.522Z,14.80
2019-04-27T13:22:21.477Z,14.90
2019-04-27T13:27:27.012Z,14.60
2019-04-27T13:32:32.572Z,14.60
2019-04-27T13:37:39.047Z,14.40
2019-04-27T13:42:57.289Z,14.40
2019-04-27T13:48:19.094Z,14.30
2019-04-27T13:53:23.961Z,14.50
2019-04-27T13:58:28.817Z,14.50
2019-04-27T14:03:34.463Z,14.60
2019-04-27T14:08:39.248Z,14.50
2019-04-27T14:13:44.088Z,14.40
2019-04-27T14:18:48.947Z,14.40
2019-04-27T14:23:53.861Z,14.20
2019-04-27T14:28:58.842Z,14.20
2019-04-27T14:34:03.694Z,14.20
2019-04-27T14:39:10.193Z,14.20
2019-04-27T14:44:14.968Z,14.00
2019-04-27T14:49:19.930Z,13.90
2019-04-27T14:54:24.760Z,13.80
2019-04-27T14:59:30.194Z,13.80
2019-04-27T15:04:37.589Z,13.70
2019-04-27T15:09:42.103Z,13.70
2019-04-27T15:14:47.199Z,13.70
2019-04-27T15:19:56.654Z,13.80
2019-04-27T15:25:13.592Z,13.90
2019-04-27T15:30:11.504Z,13.80
2019-04-27T15:35:35.457Z,13.80
2019-04-27T15:40:58.732Z,13.70
2019-04-27T15:46:03.692Z,13.70
2019-04-27T15:51:14.763Z,13.70
2019-04-27T15:56:15.149Z,13.50
2019-04-27T16:01:20.023Z,13.50
2019-04-27T16:06:25.370Z,13.30
2019-04-27T16:11:30.272Z,13.40
2019-04-27T16:16:35.145Z,13.30
2019-04-27T16:21:46.985Z,13.30
2019-04-27T16:26:51.049Z,13.30
2019-04-27T16:31:53.167Z,13.30
2019-04-27T16:36:59.164Z,13.30
2019-04-27T16:42:08.133Z,13.30
2019-04-27T16:47:12.513Z,13.30
2019-04-27T16:52:17.567Z,13.20
2019-04-27T16:57:23.407Z,13.20
2019-04-27T17:02:28.304Z,13.20
2019-04-27T17:07:37.774Z,13.10
2019-04-27T17:12:43.191Z,13.10
2019-04-27T17:17:53.693Z,13.10
2019-04-27T17:22:58.544Z,13.10
2019-04-27T17:28:05.233Z,13.00
2019-04-27T17:33:21.199Z,13.00
2019-04-27T17:38:28.681Z,12.90
2019-04-27T17:43:37.346Z,12.90
2019-04-27T17:48:40.224Z,12.90
2019-04-27T17:53:45.259Z,12.90
2019-04-27T17:58:52.292Z,12.90
2019-04-27T18:04:00.175Z,12.80
2019-04-27T18:09:08.286Z,12.80
2019-04-27T18:14:14.752Z,12.80
2019-04-27T18:19:40.325Z,12.70
2019-04-27T18:24:47.350Z,12.70
2019-04-27T18:29:52.535Z,12.60
2019-04-27T18:34:58.440Z,12.50
2019-04-27T18:40:04.585Z,12.50
2019-04-27T18:45:09.693Z,12.60
2019-04-27T18:50:25.168Z,12.60
2019-04-27T18:55:30.001Z,12.60
2019-04-27T19:00:34.919Z,12.70
2019-04-27T19:05:40.618Z,12.70
2019-04-27T19:10:45.810Z,12.60
2019-04-27T19:15:50.648Z,12.60
2019-04-27T19:20:55.491Z,12.50
2019-04-27T19:26:11.121Z,12.50
2019-04-27T19:31:20.577Z,12.50
2019-04-27T19:36:25.420Z,12.50
2019-04-27T19:41:30.218Z,12.50
2019-04-27T19:46:35.122Z,12.40
2019-04-27T19:51:39.980Z,12.40
2019-04-27T19:56:44.773Z,12.40
2019-04-27T20:01:51.340Z,12.40
2019-04-27T20:06:56.262Z,12.40
2019-04-27T20:12:02.879Z,12.30
2019-04-27T20:17:07.899Z,12.30
2019-04-27T20:22:12.736Z,12.30
2019-04-27T20:27:17.766Z,12.30
2019-04-27T20:32:22.645Z,12.20
2019-04-27T20:37:27.587Z,12.10
2019-04-27T20:42:32.424Z,12.10
2019-04-27T20:47:37.314Z,12.00
2019-04-27T20:52:43.803Z,12.00
2019-04-27T20:57:58.723Z,11.90
2019-04-27T21:03:05.941Z,11.90
2019-04-27T21:08:15.367Z,11.90
2019-04-27T21:13:20.228Z,11.90
2019-04-27T21:18:25.104Z,11.80
2019-04-27T21:23:31.204Z,11.70
2019-04-27T21:28:36.178Z,11.70
2019-04-27T21:33:40.982Z,11.70
2019-04-27T21:38:45.791Z,11.70
2019-04-27T21:43:51.247Z,11.70
2019-04-27T21:48:56.374Z,11.70
2019-04-27T21:54:08.592Z,11.70
2019-04-27T21:59:13.445Z,11.70
2019-04-27T22:04:18.642Z,11.70
2019-04-27T22:09:23.492Z,11.60
2019-04-27T22:14:28.324Z,11.60
2019-04-27T22:19:33.234Z,11.50
2019-04-27T22:24:42.788Z,11.50
2019-04-27T22:29:45.940Z,11.40
2019-04-27T22:34:50.851Z,11.30
2019-04-27T22:39:57.377Z,11.20
2019-04-27T22:45:03.861Z,11.10
2019-04-27T22:50:08.695Z,11.10
2019-04-27T22:55:13.549Z,11.00
2019-04-27T23:00:36.495Z,11.00
2019-04-27T23:05:42.995Z,11.00
2019-04-27T23:10:48.111Z,11.00
2019-04-27T23:15:54.590Z,10.90
2019-04-27T23:21:01.329Z,11.00
2019-04-27T23:26:05.892Z,11.00
2019-04-27T23:31:15.029Z,11.00
2019-04-27T23:36:21.105Z,11.00
2019-04-27T23:41:26.433Z,11.00
2019-04-27T23:46:31.338Z,11.00
2019-04-27T23:51:52.995Z,11.00
2019-04-27T23:56:57.836Z,11.00
